createdAt,value
2019-06-08T00:01:07.158Z,62.30
2019-06-08T00:03:37.300Z,62.30
2019-06-08T00:06:07.412Z,62.50
2019-06-08T00:08:37.549Z,62.50
2019-06-08T00:11:07.662Z,62.70
2019-06-08T00:13:37.802Z,63.00
2019-06-08T00:16:07.909Z,63.00
2019-06-08T00:18:38.063Z,63.10
2019-06-08T00:21:08.169Z,63.10
2019-06-08T00:23:38.309Z,63.10
2019-06-08T00:26:08.413Z,63.30
2019-06-08T00:28:38.562Z,63.60
2019-06-08T00:31:08.662Z,63.80
2019-06-08T00:33:38.809Z,63.60
2019-06-08T00:36:08.921Z,63.70
2019-06-08T00:38:39.062Z,63.70
2019-06-08T00:41:09.168Z,63.90
2019-06-08T00:43:39.310Z,63.70
2019-06-08T00:46:09.415Z,63.70
2019-06-08T00:48:39.554Z,64.00
2019-06-08T00:51:10.668Z,64.00
2019-06-08T00:53:40.810Z,64.10
2019-06-08T00:56:10.918Z,63.90
2019-06-08T00:58:41.058Z,64.10
2019-06-08T01:01:11.170Z,64.10
2019-06-08T01:03:41.311Z,63.90
2019-06-08T01:06:11.417Z,64.00
2019-06-08T01:08:41.553Z,63.80
2019-06-08T01:11:11.664Z,62.20
2019-06-08T01:13:41.806Z,61.30
2019-06-08T01:16:11.950Z,59.20
2019-06-08T01:18:42.061Z,59.10
2019-06-08T01:21:12.206Z,58.90
2019-06-08T01:23:42.310Z,57.60
2019-06-08T01:26:12.455Z,56.90
2019-06-08T01:28:42.565Z,55.70
2019-06-08T01:31:12.709Z,54.60
2019-06-08T01:33:42.817Z,54.70
2019-06-08T01:36:12.959Z,54.70
2019-06-08T01:38:43.073Z,54.80
2019-06-08T01:41:13.205Z,54.60
2019-06-08T01:43:43.310Z,54.40
2019-06-08T01:46:14.553Z,54.30
2019-06-08T01:48:44.697Z,54.10
2019-06-08T01:51:14.843Z,54.10
2019-06-08T01:53:44.984Z,53.80
2019-06-08T01:56:15.094Z,53.40
2019-06-08T01:58:45.242Z,53.60
2019-06-08T02:01:15.337Z,53.70
2019-06-08T02:03:45.483Z,53.50
2019-06-08T02:06:15.585Z,53.70
2019-06-08T02:08:45.734Z,53.80
2019-06-08T02:11:15.839Z,53.70
2019-06-08T02:13:45.988Z,54.00
2019-06-08T02:16:16.096Z,53.80
2019-06-08T02:18:50.816Z,53.70
2019-06-08T02:21:17.964Z,53.60
2019-06-08T02:23:48.098Z,53.70
2019-06-08T02:26:18.201Z,53.80
2019-06-08T02:28:48.347Z,53.90
2019-06-08T02:31:18.495Z,53.90
2019-06-08T02:33:48.601Z,53.70
2019-06-08T02:36:18.750Z,53.90
2019-06-08T02:38:48.895Z,53.60
2019-06-08T02:41:19.025Z,53.60
2019-06-08T02:43:49.147Z,53.60
2019-06-08T02:46:19.256Z,53.90
2019-06-08T02:49:03.307Z,53.50
2019-06-08T02:51:21.129Z,53.70
2019-06-08T02:53:51.270Z,53.80
2019-06-08T02:56:21.477Z,53.70
2019-06-08T02:58:51.926Z,53.60
2019-06-08T03:01:22.043Z,53.60
2019-06-08T03:03:52.181Z,53.90
2019-06-08T03:06:22.330Z,53.90
2019-06-08T03:08:52.440Z,54.10
2019-06-08T03:12:20.786Z,54.90
2019-06-08T03:14:50.942Z,54.30
2019-06-08T03:17:21.041Z,54.20
2019-06-08T03:19:51.190Z,54.10
2019-06-08T03:22:21.297Z,54.40
2019-06-08T03:24:51.444Z,54.40
2019-06-08T03:27:22.551Z,54.60
2019-06-08T03:29:52.698Z,54.50
2019-06-08T03:32:22.811Z,54.70
2019-06-08T03:34:56.409Z,54.60
2019-06-08T03:37:24.667Z,54.70
2019-06-08T03:39:54.808Z,54.90
2019-06-08T03:42:24.909Z,54.80
2019-06-08T03:44:55.044Z,54.80
2019-06-08T03:47:25.159Z,54.80
2019-06-08T03:49:57.676Z,54.90
2019-06-08T03:52:27.063Z,55.10
2019-06-08T03:54:57.203Z,55.30
2019-06-08T03:57:27.339Z,55.10
2019-06-08T03:59:57.442Z,55.20
2019-06-08T04:02:27.581Z,55.40
2019-06-08T04:04:57.694Z,55.10
2019-06-08T04:07:27.837Z,55.30
2019-06-08T04:09:57.943Z,55.40
2019-06-08T04:12:28.085Z,55.10
2019-06-08T04:14:58.193Z,55.40
2019-06-08T04:17:28.337Z,55.60
2019-06-08T04:20:10.249Z,55.50
2019-06-08T04:22:30.202Z,55.50
2019-06-08T04:25:00.307Z,55.70
2019-06-08T04:27:30.459Z,55.40
2019-06-08T04:30:00.562Z,55.50
2019-06-08T04:32:31.817Z,55.40
2019-06-08T04:35:01.927Z,55.50
2019-06-08T04:37:32.168Z,55.50
2019-06-08T04:40:02.274Z,55.70
2019-06-08T04:42:34.018Z,55.90
2019-06-08T04:45:05.617Z,55.80
2019-06-08T04:47:35.766Z,56.40
2019-06-08T04:50:21.538Z,56.40
2019-06-08T04:52:39.484Z,56.20
2019-06-08T04:55:10.373Z,56.30
2019-06-08T04:57:41.941Z,56.50
2019-06-08T05:00:13.074Z,56.30
2019-06-08T05:02:44.725Z,56.50
2019-06-08T05:05:15.516Z,56.60
2019-06-08T05:07:47.511Z,56.10
2019-06-08T05:10:17.384Z,57.00
2019-06-08T05:12:47.837Z,56.80
2019-06-08T05:15:19.251Z,56.50
2019-06-08T05:17:49.758Z,56.90
2019-06-08T05:20:20.038Z,57.00
2019-06-08T05:22:50.160Z,57.00
2019-06-08T05:25:20.296Z,57.10
2019-06-08T05:27:50.405Z,57.40
2019-06-08T05:30:20.551Z,57.10
2019-06-08T05:32:50.660Z,57.50
2019-06-08T05:35:20.802Z,57.20
2019-06-08T05:37:50.912Z,57.20
2019-06-08T05:40:21.048Z,57.60
2019-06-08T05:42:51.153Z,58.00
2019-06-08T05:45:21.302Z,57.60
2019-06-08T05:47:51.402Z,57.80
2019-06-08T05:50:21.545Z,57.90
2019-06-08T05:52:51.645Z,57.90
2019-06-08T05:55:21.800Z,57.60
2019-06-08T05:57:51.898Z,58.10
2019-06-08T06:00:22.040Z,58.20
2019-06-08T06:02:52.142Z,57.70
2019-06-08T06:05:22.292Z,57.90
2019-06-08T06:07:52.439Z,57.60
2019-06-08T06:10:22.587Z,57.90
2019-06-08T06:12:52.730Z,58.40
2019-06-08T06:15:22.838Z,58.40
2019-06-08T06:17:52.999Z,58.50
2019-06-08T06:20:23.087Z,58.50
2019-06-08T06:22:53.249Z,58.10
2019-06-08T06:25:23.454Z,58.20
2019-06-08T06:27:53.604Z,57.90
2019-06-08T06:30:23.702Z,57.50
2019-06-08T06:32:53.849Z,57.70
2019-06-08T06:35:24.238Z,58.40
2019-06-08T06:37:54.376Z,57.90
2019-06-08T06:40:24.492Z,57.50
2019-06-08T06:42:54.637Z,57.70
2019-06-08T06:45:24.745Z,57.90
2019-06-08T06:47:55.889Z,58.40
2019-06-08T06:50:27.000Z,58.60
2019-06-08T06:52:57.143Z,58.50
2019-06-08T06:55:27.243Z,58.50
2019-06-08T06:57:57.387Z,57.80
2019-06-08T07:00:31.923Z,57.90
2019-06-08T07:03:02.073Z,57.60
2019-06-08T07:05:32.185Z,58.10
2019-06-08T07:08:02.325Z,58.20
2019-06-08T07:10:32.439Z,58.20
2019-06-08T07:13:02.620Z,57.60
2019-06-08T07:15:41.099Z,57.90
2019-06-08T07:18:04.478Z,58.20
2019-06-08T07:20:34.603Z,58.00
2019-06-08T07:23:04.733Z,58.50
2019-06-08T07:25:34.843Z,58.20
2019-06-08T07:28:04.986Z,58.10
2019-06-08T07:30:35.125Z,58.10
2019-06-08T07:33:05.256Z,57.40
2019-06-08T07:35:35.473Z,57.80
2019-06-08T07:38:05.649Z,57.40
2019-06-08T07:40:35.861Z,57.70
2019-06-08T07:43:05.952Z,57.40
2019-06-08T07:45:36.101Z,57.70
2019-06-08T07:48:06.211Z,58.00
2019-06-08T07:50:36.354Z,58.10
2019-06-08T07:53:07.057Z,58.50
2019-06-08T07:55:37.206Z,57.80
2019-06-08T07:58:07.320Z,57.80
2019-06-08T08:00:37.461Z,57.90
2019-06-08T08:03:07.566Z,56.30
2019-06-08T08:05:37.711Z,56.40
2019-06-08T08:08:07.817Z,57.10
2019-06-08T08:10:37.959Z,55.90
2019-06-08T08:13:08.075Z,56.00
2019-06-08T08:15:38.244Z,55.40
2019-06-08T08:18:08.350Z,56.20
2019-06-08T08:20:38.493Z,55.00
2019-06-08T08:23:09.182Z,54.40
2019-06-08T08:25:39.533Z,54.60
2019-06-08T08:28:09.645Z,52.90
2019-06-08T08:30:39.789Z,53.50
2019-06-08T08:33:09.899Z,52.80
2019-06-08T08:35:40.046Z,50.60
2019-06-08T08:38:10.151Z,49.40
2019-06-08T08:40:40.292Z,47.90
2019-06-08T08:43:10.393Z,47.90
2019-06-08T08:45:40.542Z,48.50
2019-06-08T08:48:24.510Z,45.30
2019-06-08T08:50:42.412Z,45.40
2019-06-08T08:53:12.559Z,46.10
2019-06-08T08:55:42.665Z,46.30
2019-06-08T08:58:12.801Z,46.80
2019-06-08T09:00:42.903Z,45.80
2019-06-08T09:03:27.894Z,46.60
2019-06-08T09:05:48.151Z,47.80
2019-06-08T09:08:18.231Z,47.20
2019-06-08T09:10:48.558Z,46.70
2019-06-08T09:13:18.834Z,47.00
2019-06-08T09:15:49.411Z,46.80
2019-06-08T09:18:19.542Z,46.70
2019-06-08T09:20:52.377Z,46.50
2019-06-08T09:23:22.418Z,46.70
2019-06-08T09:25:55.060Z,45.90
2019-06-08T09:28:24.285Z,46.00
2019-06-08T09:30:56.698Z,45.50
2019-06-08T09:33:28.812Z,45.50
2019-06-08T09:36:02.370Z,44.60
2019-06-08T09:38:30.829Z,44.30
2019-06-08T09:41:03.398Z,45.10
2019-06-08T09:43:32.733Z,43.10
2019-06-08T09:46:05.270Z,42.40
2019-06-08T09:48:34.601Z,44.20
2019-06-08T09:51:06.431Z,42.90
2019-06-08T09:53:40.429Z,43.70
2019-06-08T09:56:09.729Z,43.10
2019-06-08T09:58:40.025Z,43.80
2019-06-08T10:01:12.337Z,42.70
2019-06-08T10:03:41.886Z,42.70
2019-06-08T10:06:12.753Z,42.40
2019-06-08T10:08:43.038Z,42.60
2019-06-08T10:11:13.165Z,42.30
2019-06-08T10:13:43.557Z,41.40
2019-06-08T10:16:13.928Z,42.70
2019-06-08T10:18:44.041Z,42.20
2019-06-08T10:21:14.200Z,41.70
2019-06-08T10:23:44.279Z,41.70
2019-06-08T10:26:14.430Z,41.50
2019-06-08T10:28:44.559Z,42.10
2019-06-08T10:31:14.677Z,40.90
2019-06-08T10:33:44.778Z,41.30
2019-06-08T10:36:14.925Z,40.40
2019-06-08T10:38:47.802Z,40.60
2019-06-08T10:41:21.433Z,39.30
2019-06-08T10:43:48.539Z,36.80
2019-06-08T10:46:20.835Z,36.90
2019-06-08T10:48:50.413Z,37.50
2019-06-08T10:51:20.546Z,36.90
2019-06-08T10:53:53.302Z,37.30
2019-06-08T10:56:22.426Z,36.50
2019-06-08T10:58:52.531Z,35.00
2019-06-08T11:01:22.693Z,35.00
2019-06-08T11:03:52.777Z,36.60
2019-06-08T11:06:22.885Z,35.40
2019-06-08T11:08:53.028Z,35.70
2019-06-08T11:11:23.140Z,35.10
2019-06-08T11:13:53.285Z,35.00
2019-06-08T11:16:23.399Z,34.20
2019-06-08T11:18:53.531Z,33.70
2019-06-08T11:21:23.625Z,34.10
2019-06-08T11:24:07.584Z,34.80
2019-06-08T11:26:25.534Z,35.40
2019-06-08T11:28:58.370Z,36.20
2019-06-08T11:31:29.802Z,34.50
2019-06-08T11:34:00.477Z,36.60
2019-06-08T11:36:30.908Z,34.50
2019-06-08T11:39:02.427Z,35.00
2019-06-08T11:41:33.127Z,35.10
2019-06-08T11:44:03.835Z,36.40
2019-06-08T11:46:35.231Z,32.20
2019-06-08T11:49:08.256Z,33.30
2019-06-08T11:51:37.869Z,33.80
2019-06-08T11:54:25.652Z,34.90
2019-06-08T11:56:40.406Z,34.70
2019-06-08T11:59:14.161Z,34.40
2019-06-08T12:01:43.159Z,33.60
2019-06-08T12:04:13.275Z,33.30
2019-06-08T12:06:43.410Z,33.10
2019-06-08T12:09:14.081Z,33.20
2019-06-08T12:11:44.366Z,33.90
2019-06-08T12:14:14.520Z,32.90
2019-06-08T12:16:44.723Z,33.70
2019-06-08T12:19:17.305Z,33.60
2019-06-08T12:21:49.614Z,33.70
2019-06-08T12:24:18.323Z,33.20
2019-06-08T12:26:51.794Z,32.30
2019-06-08T12:29:20.190Z,32.40
2019-06-08T12:31:50.333Z,33.60
2019-06-08T12:34:20.439Z,32.90
2019-06-08T12:36:50.587Z,32.90
2019-06-08T12:39:21.470Z,34.00
2019-06-08T12:41:51.743Z,33.30
2019-06-08T12:44:22.231Z,32.40
2019-06-08T12:46:52.711Z,34.60
2019-06-08T12:49:23.801Z,31.20
2019-06-08T12:51:53.944Z,32.60
2019-06-08T12:54:24.045Z,31.60
2019-06-08T12:56:54.190Z,31.70
2019-06-08T12:59:25.406Z,30.40
2019-06-08T13:01:55.537Z,29.30
2019-06-08T13:04:25.682Z,30.00
2019-06-08T13:06:55.787Z,29.60
2019-06-08T13:09:29.778Z,29.80
2019-06-08T13:11:59.449Z,28.70
2019-06-08T13:14:29.424Z,29.40
2019-06-08T13:17:01.126Z,29.00
2019-06-08T13:19:31.472Z,28.70
2019-06-08T13:22:01.576Z,29.00
2019-06-08T13:24:31.725Z,29.30
2019-06-08T13:27:01.830Z,29.00
2019-06-08T13:29:31.967Z,28.60
2019-06-08T13:32:02.075Z,29.30
2019-06-08T13:34:32.214Z,29.40
2019-06-08T13:37:02.325Z,30.50
2019-06-08T13:39:32.480Z,29.90
2019-06-08T13:42:02.590Z,30.80
2019-06-08T13:44:32.732Z,29.80
2019-06-08T13:47:02.842Z,29.90
2019-06-08T13:49:32.981Z,30.00
2019-06-08T13:52:03.091Z,28.90
2019-06-08T13:54:33.234Z,30.00
2019-06-08T13:57:03.338Z,29.40
2019-06-08T13:59:33.486Z,29.40
2019-06-08T14:02:03.597Z,29.10
2019-06-08T14:04:33.741Z,29.70
2019-06-08T14:07:03.850Z,29.50
2019-06-08T14:09:33.993Z,28.80
2019-06-08T14:12:04.137Z,29.20
2019-06-08T14:14:34.284Z,29.50
2019-06-08T14:17:04.434Z,29.90
2019-06-08T14:19:34.538Z,29.80
2019-06-08T14:22:04.685Z,31.50
2019-06-08T14:24:34.920Z,30.30
2019-06-08T14:27:08.061Z,32.30
2019-06-08T14:29:37.367Z,30.20
2019-06-08T14:32:07.940Z,29.40
2019-06-08T14:34:38.802Z,29.60
2019-06-08T14:37:09.159Z,30.60
2019-06-08T14:39:39.262Z,29.20
2019-06-08T14:42:09.408Z,30.30
2019-06-08T14:44:39.510Z,31.00
2019-06-08T14:47:15.372Z,30.40
2019-06-08T14:49:45.780Z,29.60
2019-06-08T14:52:18.760Z,29.40
2019-06-08T14:54:48.248Z,30.60
2019-06-08T14:57:19.521Z,30.90
2019-06-08T14:59:50.626Z,29.70
2019-06-08T15:02:21.238Z,29.50
2019-06-08T15:04:51.538Z,29.20
2019-06-08T15:07:23.853Z,29.00
2019-06-08T15:09:54.269Z,29.70
2019-06-08T15:12:25.341Z,29.50
2019-06-08T15:14:57.898Z,30.30
2019-06-08T15:17:30.036Z,30.10
2019-06-08T15:19:59.113Z,30.70
2019-06-08T15:22:30.624Z,30.60
2019-06-08T15:25:01.029Z,30.60
2019-06-08T15:27:33.225Z,30.30
2019-06-08T15:30:04.563Z,30.40
2019-06-08T15:32:35.778Z,30.20
2019-06-08T15:35:08.059Z,31.00
2019-06-08T15:37:40.866Z,31.80
2019-06-08T15:40:10.373Z,32.30
2019-06-08T15:42:40.521Z,30.70
2019-06-08T15:45:10.858Z,30.40
2019-06-08T15:47:40.994Z,31.50
2019-06-08T15:50:11.122Z,32.80
2019-06-08T15:52:41.222Z,31.80
2019-06-08T15:55:11.466Z,31.60
2019-06-08T15:57:41.574Z,31.10
2019-06-08T16:00:11.733Z,32.80
2019-06-08T16:02:41.837Z,31.50
2019-06-08T16:05:12.472Z,32.90
2019-06-08T16:07:42.576Z,32.70
2019-06-08T16:10:13.733Z,32.10
2019-06-08T16:12:43.844Z,32.10
2019-06-08T16:15:13.986Z,32.40
2019-06-08T16:17:44.090Z,32.90
2019-06-08T16:20:14.237Z,30.90
2019-06-08T16:22:44.342Z,31.30
2019-06-08T16:25:14.493Z,32.50
2019-06-08T16:27:44.594Z,32.40
2019-06-08T16:30:14.740Z,33.30
2019-06-08T16:32:44.846Z,31.90
2019-06-08T16:35:15.001Z,32.50
2019-06-08T16:37:45.122Z,32.00
2019-06-08T16:40:15.262Z,31.20
2019-06-08T16:42:45.366Z,32.80
2019-06-08T16:45:15.515Z,32.90
2019-06-08T16:47:45.618Z,32.70
2019-06-08T16:50:24.098Z,31.80
2019-06-08T16:52:47.492Z,32.30
2019-06-08T16:55:17.637Z,31.60
2019-06-08T16:57:47.742Z,32.30
2019-06-08T17:00:30.804Z,33.80
2019-06-08T17:02:49.812Z,33.00
2019-06-08T17:05:19.959Z,32.30
2019-06-08T17:07:50.062Z,32.80
2019-06-08T17:10:20.207Z,32.70
2019-06-08T17:12:50.308Z,33.10
2019-06-08T17:15:20.453Z,32.70
2019-06-08T17:17:50.561Z,32.70
2019-06-08T17:20:20.712Z,33.20
2019-06-08T17:22:50.819Z,32.60
2019-06-08T17:25:20.977Z,33.10
2019-06-08T17:27:51.093Z,33.20
2019-06-08T17:30:21.261Z,33.00
2019-06-08T17:32:51.590Z,32.90
2019-06-08T17:35:21.717Z,32.90
2019-06-08T17:37:51.821Z,32.50
2019-06-08T17:40:21.973Z,32.20
2019-06-08T17:42:52.094Z,33.60
2019-06-08T17:45:22.227Z,34.50
2019-06-08T17:47:52.334Z,34.90
2019-06-08T17:50:22.483Z,34.40
2019-06-08T17:52:52.739Z,34.60
2019-06-08T17:55:22.858Z,35.10
2019-06-08T17:57:53.808Z,34.90
2019-06-08T18:00:24.732Z,35.00
2019-06-08T18:02:57.784Z,35.30
2019-06-08T18:05:28.342Z,36.10
2019-06-08T18:07:58.577Z,36.40
2019-06-08T18:10:28.692Z,36.60
2019-06-08T18:12:58.971Z,37.10
2019-06-08T18:15:29.178Z,37.50
2019-06-08T18:17:59.328Z,37.30
2019-06-08T18:20:29.437Z,37.90
2019-06-08T18:22:59.586Z,38.00
2019-06-08T18:25:29.693Z,39.00
2019-06-08T18:28:09.834Z,38.50
2019-06-08T18:30:31.570Z,38.80
2019-06-08T18:33:01.736Z,39.20
2019-06-08T18:35:31.850Z,39.40
2019-06-08T18:38:01.994Z,39.60
2019-06-08T18:40:32.104Z,39.70
2019-06-08T18:43:02.265Z,40.80
2019-06-08T18:45:32.373Z,40.90
2019-06-08T18:48:02.514Z,39.80
2019-06-08T18:50:32.613Z,40.20
2019-06-08T18:53:02.761Z,39.90
2019-06-08T18:55:32.866Z,40.70
2019-06-08T18:58:16.357Z,42.30
2019-06-08T19:00:40.064Z,42.40
2019-06-08T19:03:07.805Z,43.20
2019-06-08T19:05:41.533Z,43.20
2019-06-08T19:08:10.776Z,43.30
2019-06-08T19:10:42.317Z,43.40
2019-06-08T19:13:12.658Z,42.90
2019-06-08T19:15:45.717Z,43.70
2019-06-08T19:18:14.525Z,44.40
2019-06-08T19:20:47.258Z,44.90
2019-06-08T19:23:21.050Z,45.10
2019-06-08T19:25:49.520Z,46.00
2019-06-08T19:28:35.188Z,46.30
2019-06-08T19:30:51.720Z,45.60
2019-06-08T19:33:22.050Z,47.30
2019-06-08T19:35:53.924Z,47.30
2019-06-08T19:38:23.928Z,47.00
2019-06-08T19:40:54.032Z,47.30
2019-06-08T19:43:24.141Z,47.60
2019-06-08T19:45:54.289Z,48.20
2019-06-08T19:48:27.549Z,48.70
2019-06-08T19:50:58.111Z,48.40
2019-06-08T19:53:28.624Z,49.20
2019-06-08T19:55:59.047Z,48.80
2019-06-08T19:58:29.146Z,49.40
2019-06-08T20:00:59.292Z,49.90
2019-06-08T20:03:29.410Z,49.80
2019-06-08T20:05:59.552Z,50.20
2019-06-08T20:08:29.657Z,51.10
2019-06-08T20:10:59.803Z,51.60
2019-06-08T20:13:29.916Z,50.70
2019-06-08T20:16:02.318Z,51.80
2019-06-08T20:18:31.774Z,52.20
2019-06-08T20:21:01.910Z,52.00
2019-06-08T20:23:32.018Z,52.20
2019-06-08T20:26:02.158Z,52.50
2019-06-08T20:28:32.268Z,52.50
2019-06-08T20:31:02.414Z,52.70
2019-06-08T20:33:32.524Z,53.40
2019-06-08T20:36:02.657Z,53.10
2019-06-08T20:38:38.514Z,53.00
2019-06-08T20:41:04.524Z,53.20
2019-06-08T20:43:34.668Z,53.80
2019-06-08T20:46:04.770Z,53.80
2019-06-08T20:48:34.926Z,54.90
2019-06-08T20:51:05.028Z,55.10
2019-06-08T20:53:35.174Z,55.50
2019-06-08T20:56:07.786Z,55.00
2019-06-08T20:58:38.041Z,56.00
2019-06-08T21:01:08.147Z,55.70
2019-06-08T21:03:38.293Z,55.50
2019-06-08T21:06:08.397Z,56.10
2019-06-08T21:08:38.540Z,55.30
2019-06-08T21:11:08.666Z,55.80
2019-06-08T21:13:38.791Z,55.40
2019-06-08T21:16:08.900Z,55.40
2019-06-08T21:18:39.046Z,55.70
2019-06-08T21:21:09.149Z,56.00
2019-06-08T21:23:39.303Z,54.70
2019-06-08T21:26:09.403Z,56.10
2019-06-08T21:28:39.554Z,56.20
2019-06-08T21:31:09.690Z,56.10
2019-06-08T21:33:39.839Z,56.40
2019-06-08T21:36:09.982Z,56.10
2019-06-08T21:38:40.085Z,56.40
2019-06-08T21:41:10.234Z,55.60
2019-06-08T21:43:40.341Z,56.50
2019-06-08T21:46:10.489Z,57.30
2019-06-08T21:48:40.594Z,57.10
2019-06-08T21:51:10.763Z,57.40
2019-06-08T21:53:41.849Z,57.50
2019-06-08T21:56:11.997Z,57.20
2019-06-08T21:58:42.115Z,57.50
2019-06-08T22:01:12.348Z,58.80
2019-06-08T22:03:42.459Z,59.30
2019-06-08T22:06:12.625Z,59.60
2019-06-08T22:08:42.722Z,59.40
2019-06-08T22:11:12.871Z,58.60
2019-06-08T22:13:44.099Z,60.00
2019-06-08T22:16:14.273Z,60.40
2019-06-08T22:18:44.334Z,59.10
2019-06-08T22:21:17.331Z,59.50
2019-06-08T22:23:47.634Z,59.20
2019-06-08T22:26:17.947Z,58.60
2019-06-08T22:28:48.283Z,59.30
2019-06-08T22:31:18.493Z,59.20
2019-06-08T22:33:48.603Z,59.00
2019-06-08T22:36:18.892Z,57.90
2019-06-08T22:38:49.157Z,56.60
2019-06-08T22:41:19.301Z,56.80
2019-06-08T22:43:49.412Z,56.00
2019-06-08T22:46:19.558Z,55.70
2019-06-08T22:48:49.657Z,57.20
2019-06-08T22:51:19.801Z,54.90
2019-06-08T22:53:49.908Z,55.40
2019-06-08T22:56:20.053Z,54.70
2019-06-08T22:58:50.160Z,54.60
2019-06-08T23:01:20.306Z,54.80
2019-06-08T23:03:50.413Z,54.10
2019-06-08T23:06:20.550Z,54.60
2019-06-08T23:08:50.662Z,54.50
2019-06-08T23:11:20.809Z,54.20
2019-06-08T23:13:50.914Z,54.30
2019-06-08T23:16:21.063Z,54.00
2019-06-08T23:18:51.165Z,54.00
2019-06-08T23:21:21.309Z,54.10
2019-06-08T23:23:51.447Z,53.40
2019-06-08T23:26:21.594Z,53.50
2019-06-08T23:28:51.734Z,53.40
2019-06-08T23:31:25.489Z,53.40
2019-06-08T23:33:53.605Z,53.20
2019-06-08T23:36:46.529Z,53.00
2019-06-08T23:38:55.474Z,53.20
2019-06-08T23:41:27.251Z,52.90
2019-06-08T23:43:59.460Z,53.00
2019-06-08T23:46:29.758Z,52.90
2019-06-08T23:49:01.874Z,52.90
2019-06-08T23:51:31.935Z,53.50
2019-06-08T23:54:03.778Z,53.70
2019-06-08T23:56:36.941Z,53.40
2019-06-08T23:59:07.328Z,53.50
